Fuquay Varina, North Carolina
Current Conditions -  °F | °C
As of 9:35 PM on Saturday 22 Nov 2014 (Local Time) from KHRJ Reporting Station
Clear Clear  
Wind Chill: 37°   Ceiling: Unl
Heat Index: 37°   Visibility: 10mi
Dew Point: 27°   Wind: 0mph
Humidity: 66%   Direction: NA
Pressure: 30.36"   Gusts: NA
Location:  35.59°N, 78.78°W
Report Text: KHRJ 230235Z AUTO 00000KT 10SM CLR 03/M03 A3036 RMK AO2 T00271030
Loading
Personal Weather Stations






























Interactive Weather Map New forecast layout! Learn more

10-Day Weather Forecast

Advertisements
Track Severe Weather on mobile